sensor_id;sensor_type;location;lat;lon;timestamp;pressure;altitude;pressure_sealevel;temperature;humidity
77590;BME280;66746;51.328;12.332;2023-04-07T00:00:43;100656.25;;;3.52;55.96
77590;BME280;66746;51.328;12.332;2023-04-07T00:03:12;100648.22;;;3.47;57.04
77590;BME280;66746;51.328;12.332;2023-04-07T00:05:45;100657.16;;;3.45;56.16
77590;BME280;66746;51.328;12.332;2023-04-07T00:08:14;100649.16;;;3.42;56.68
77590;BME280;66746;51.328;12.332;2023-04-07T00:10:43;100655.41;;;3.44;56.36
77590;BME280;66746;51.328;12.332;2023-04-07T00:13:15;100644.66;;;3.45;55.30
77590;BME280;66746;51.328;12.332;2023-04-07T00:15:46;100637.53;;;3.46;55.29
77590;BME280;66746;51.328;12.332;2023-04-07T00:18:13;100639.31;;;3.41;55.86
77590;BME280;66746;51.328;12.332;2023-04-07T00:20:42;100637.56;;;3.40;55.89
77590;BME280;66746;51.328;12.332;2023-04-07T00:23:12;100644.69;;;3.39;55.78
77590;BME280;66746;51.328;12.332;2023-04-07T00:25:43;100648.25;;;3.41;55.58
77590;BME280;66746;51.328;12.332;2023-04-07T00:28:12;100639.31;;;3.44;55.33
77590;BME280;66746;51.328;12.332;2023-04-07T00:30:44;100628.63;;;3.35;55.92
77590;BME280;66746;51.328;12.332;2023-04-07T00:33:15;100631.31;;;3.38;56.14
77590;BME280;66746;51.328;12.332;2023-04-07T00:35:45;100622.38;;;3.36;55.92
77590;BME280;66746;51.328;12.332;2023-04-07T00:38:13;100636.63;;;3.44;57.06
77590;BME280;66746;51.328;12.332;2023-04-07T00:40:46;100624.16;;;3.40;55.66
77590;BME280;66746;51.328;12.332;2023-04-07T00:43:13;100636.66;;;3.35;55.83
77590;BME280;66746;51.328;12.332;2023-04-07T00:45:44;100627.78;;;3.27;55.70
77590;BME280;66746;51.328;12.332;2023-04-07T00:48:14;100627.81;;;3.21;55.88
77590;BME280;66746;51.328;12.332;2023-04-07T00:50:44;100625.13;;;3.18;56.18
77590;BME280;66746;51.328;12.332;2023-04-07T00:53:14;100621.56;;;3.19;56.22
77590;BME280;66746;51.328;12.332;2023-04-07T00:55:43;100618.91;;;3.13;57.25
77590;BME280;66746;51.328;12.332;2023-04-07T00:58:15;100626.91;;;3.17;56.44
77590;BME280;66746;51.328;12.332;2023-04-07T01:00:48;100614.44;;;3.15;56.79
77590;BME280;66746;51.328;12.332;2023-04-07T01:03:24;100620.66;;;3.20;56.94
77590;BME280;66746;51.328;12.332;2023-04-07T01:05:56;100615.31;;;3.17;57.18
77590;BME280;66746;51.328;12.332;2023-04-07T01:08:29;100618.00;;;3.14;56.99
77590;BME280;66746;51.328;12.332;2023-04-07T01:11:05;100615.34;;;3.08;57.66
77590;BME280;66746;51.328;12.332;2023-04-07T01:13:47;100608.22;;;2.98;58.26
77590;BME280;66746;51.328;12.332;2023-04-07T01:16:29;100606.47;;;2.91;57.87
77590;BME280;66746;51.328;12.332;2023-04-07T01:19:03;100611.81;;;2.92;58.97
77590;BME280;66746;51.328;12.332;2023-04-07T01:21:45;100606.47;;;2.91;58.69
77590;BME280;66746;51.328;12.332;2023-04-07T01:27:24;100594.00;;;2.75;58.39
77590;BME280;66746;51.328;12.332;2023-04-07T01:30:02;100610.94;;;2.83;59.08
77590;BME280;66746;51.328;12.332;2023-04-07T01:32:32;100609.19;;;2.76;59.12
77590;BME280;66746;51.328;12.332;2023-04-07T01:35:03;100608.31;;;2.74;59.34
77590;BME280;66746;51.328;12.332;2023-04-07T01:37:31;100604.72;;;2.68;59.82
77590;BME280;66746;51.328;12.332;2023-04-07T01:39:58;100602.97;;;2.67;59.18
77590;BME280;66746;51.328;12.332;2023-04-07T01:42:25;100602.97;;;2.67;58.89
77590;BME280;66746;51.328;12.332;2023-04-07T01:44:53;100603.84;;;2.65;59.25
77590;BME280;66746;51.328;12.332;2023-04-07T01:47:25;100597.63;;;2.61;59.12
77590;BME280;66746;51.328;12.332;2023-04-07T01:49:53;100593.16;;;2.60;59.13
77590;BME280;66746;51.328;12.332;2023-04-07T01:52:23;100587.78;;;2.60;59.16
77590;BME280;66746;51.328;12.332;2023-04-07T01:54:50;100589.59;;;2.55;59.19
77590;BME280;66746;51.328;12.332;2023-04-07T01:57:17;100603.88;;;2.50;59.37
77590;BME280;66746;51.328;12.332;2023-04-07T01:59:46;100596.78;;;2.44;59.53
77590;BME280;66746;51.328;12.332;2023-04-07T02:02:13;100608.34;;;2.37;59.89
77590;BME280;66746;51.328;12.332;2023-04-07T02:04:51;100606.59;;;2.30;60.20
77590;BME280;66746;51.328;12.332;2023-04-07T02:07:28;100599.44;;;2.26;60.55
77590;BME280;66746;51.328;12.332;2023-04-07T02:09:58;100596.78;;;2.26;60.32
77590;BME280;66746;51.328;12.332;2023-04-07T02:12:27;100588.75;;;2.17;60.42
77590;BME280;66746;51.328;12.332;2023-04-07T02:15:15;100584.28;;;2.18;61.41
77590;BME280;66746;51.328;12.332;2023-04-07T02:17:46;100595.88;;;2.18;60.86
77590;BME280;66746;51.328;12.332;2023-04-07T02:20:15;100579.84;;;2.11;61.50
77590;BME280;66746;51.328;12.332;2023-04-07T02:22:43;100578.94;;;2.06;61.38
77590;BME280;66746;51.328;12.332;2023-04-07T02:25:21;100586.06;;;2.02;61.63
77590;BME280;66746;51.328;12.332;2023-04-07T02:27:48;100584.31;;;2.00;61.73
77590;BME280;66746;51.328;12.332;2023-04-07T02:30:17;100581.59;;;1.92;61.72
77590;BME280;66746;51.328;12.332;2023-04-07T02:32:44;100565.56;;;1.89;61.72
77590;BME280;66746;51.328;12.332;2023-04-07T02:35:13;100577.16;;;1.91;61.78
77590;BME280;66746;51.328;12.332;2023-04-07T02:37:41;100578.94;;;1.91;62.42
77590;BME280;66746;51.328;12.332;2023-04-07T02:40:13;100588.75;;;1.93;62.05
77590;BME280;66746;51.328;12.332;2023-04-07T02:42:40;100586.06;;;1.93;61.92
77590;BME280;66746;51.328;12.332;2023-04-07T02:45:11;100586.06;;;1.95;62.14
77590;BME280;66746;51.328;12.332;2023-04-07T02:47:38;100584.28;;;1.97;61.60
77590;BME280;66746;51.328;12.332;2023-04-07T02:50:06;100585.16;;;1.94;61.89
77590;BME280;66746;51.328;12.332;2023-04-07T02:52:34;100583.41;;;1.93;65.32
77590;BME280;66746;51.328;12.332;2023-04-07T02:55:13;100585.19;;;1.97;63.60
77590;BME280;66746;51.328;12.332;2023-04-07T02:57:40;100578.94;;;1.97;62.24
77590;BME280;66746;51.328;12.332;2023-04-07T03:00:19;100585.19;;;2.03;62.41
77590;BME280;66746;51.328;12.332;2023-04-07T03:03:07;100580.72;;;2.08;62.09
77590;BME280;66746;51.328;12.332;2023-04-07T03:05:38;100583.41;;;2.08;61.68
77590;BME280;66746;51.328;12.332;2023-04-07T03:08:11;100575.38;;;1.99;61.57
77590;BME280;66746;51.328;12.332;2023-04-07T03:10:46;100580.72;;;2.01;62.05
77590;BME280;66746;51.328;12.332;2023-04-07T03:13:13;100577.16;;;1.97;62.11
77590;BME280;66746;51.328;12.332;2023-04-07T03:15:45;100566.47;;;1.94;61.77
77590;BME280;66746;51.328;12.332;2023-04-07T03:18:13;100572.69;;;1.96;61.88
77590;BME280;66746;51.328;12.332;2023-04-07T03:20:44;100575.38;;;1.93;61.78
77590;BME280;66746;51.328;12.332;2023-04-07T03:23:12;100571.81;;;1.91;62.12
77590;BME280;66746;51.328;12.332;2023-04-07T03:25:44;100569.13;;;1.88;61.78
77590;BME280;66746;51.328;12.332;2023-04-07T03:28:13;100562.00;;;1.84;61.91
77590;BME280;66746;51.328;12.332;2023-04-07T03:30:45;100578.03;;;1.89;62.12
77590;BME280;66746;51.328;12.332;2023-04-07T03:33:14;100577.16;;;1.88;61.95
77590;BME280;66746;51.328;12.332;2023-04-07T03:35:41;100574.50;;;1.82;62.25
77590;BME280;66746;51.328;12.332;2023-04-07T03:38:12;100580.72;;;1.83;62.45
77590;BME280;66746;51.328;12.332;2023-04-07T03:40:40;100578.94;;;1.75;62.76
77590;BME280;66746;51.328;12.332;2023-04-07T03:43:09;100579.81;;;1.74;63.21
77590;BME280;66746;51.328;12.332;2023-04-07T03:45:45;100565.56;;;1.71;62.45
77590;BME280;66746;51.328;12.332;2023-04-07T03:48:14;100571.81;;;1.70;63.00
77590;BME280;66746;51.328;12.332;2023-04-07T03:50:52;100570.03;;;1.66;62.66
77590;BME280;66746;51.328;12.332;2023-04-07T03:53:18;100574.44;;;1.58;63.41
77590;BME280;66746;51.328;12.332;2023-04-07T03:55:45;100563.75;;;1.53;63.54
77590;BME280;66746;51.328;12.332;2023-04-07T03:58:22;100566.41;;;1.53;63.65
77590;BME280;66746;51.328;12.332;2023-04-07T04:00:49;100580.69;;;1.55;63.94
77590;BME280;66746;51.328;12.332;2023-04-07T04:03:15;100572.66;;;1.52;64.52
77590;BME280;66746;51.328;12.332;2023-04-07T04:05:52;100578.00;;;1.49;64.20
77590;BME280;66746;51.328;12.332;2023-04-07T04:08:26;100575.31;;;1.46;64.02
77590;BME280;66746;51.328;12.332;2023-04-07T04:10:52;100579.75;;;1.49;64.06
77590;BME280;66746;51.328;12.332;2023-04-07T04:13:19;100581.56;;;1.53;64.07
77590;BME280;66746;51.328;12.332;2023-04-07T04:15:47;100577.97;;;1.51;64.46
77590;BME280;66746;51.328;12.332;2023-04-07T04:18:16;100578.91;;;1.47;64.18
77590;BME280;66746;51.328;12.332;2023-04-07T04:20:42;100579.75;;;1.47;64.72
77590;BME280;66746;51.328;12.332;2023-04-07T04:23:11;100579.75;;;1.47;64.68
77590;BME280;66746;51.328;12.332;2023-04-07T04:25:40;100575.31;;;1.46;64.35
77590;BME280;66746;51.328;12.332;2023-04-07T04:28:09;100581.53;;;1.45;64.38
77590;BME280;66746;51.328;12.332;2023-04-07T04:30:42;100576.22;;;1.41;64.27
77590;BME280;66746;51.328;12.332;2023-04-07T04:33:13;100577.97;;;1.36;64.81
77590;BME280;66746;51.328;12.332;2023-04-07T04:35:48;100583.28;;;1.28;65.03
77590;BME280;66746;51.328;12.332;2023-04-07T04:38:22;100582.38;;;1.23;65.23
77590;BME280;66746;51.328;12.332;2023-04-07T04:40:57;100586.84;;;1.23;65.55
77590;BME280;66746;51.328;12.332;2023-04-07T04:43:27;100585.03;;;1.22;65.52
77590;BME280;66746;51.328;12.332;2023-04-07T04:45:55;100577.91;;;1.21;66.04
77590;BME280;66746;51.328;12.332;2023-04-07T04:48:26;100579.66;;;1.16;65.82
77590;BME280;66746;51.328;12.332;2023-04-07T04:50:52;100578.78;;;1.17;65.73
77590;BME280;66746;51.328;12.332;2023-04-07T04:53:20;100584.13;;;1.17;66.01
77590;BME280;66746;51.328;12.332;2023-04-07T04:55:54;100586.78;;;1.14;66.46
77590;BME280;66746;51.328;12.332;2023-04-07T04:58:27;100587.69;;;1.13;66.32
77590;BME280;66746;51.328;12.332;2023-04-07T05:00:55;100583.22;;;1.18;66.71
77590;BME280;66746;51.328;12.332;2023-04-07T05:03:23;100598.38;;;1.19;66.27
77590;BME280;66746;51.328;12.332;2023-04-07T05:05:52;100587.69;;;1.20;66.71
77590;BME280;66746;51.328;12.332;2023-04-07T05:08:21;100585.03;;;1.22;66.50
77590;BME280;66746;51.328;12.332;2023-04-07T05:10:47;100585.94;;;1.24;66.04
77590;BME280;66746;51.328;12.332;2023-04-07T05:13:18;100585.09;;;1.31;66.08
77590;BME280;66746;51.328;12.332;2023-04-07T05:15:45;100580.63;;;1.33;66.07
77590;BME280;66746;51.328;12.332;2023-04-07T05:18:12;100586.91;;;1.47;65.42
77590;BME280;66746;51.328;12.332;2023-04-07T05:20:43;100590.53;;;1.85;64.23
77590;BME280;66746;51.328;12.332;2023-04-07T05:23:12;100591.41;;;2.35;62.59
77590;BME280;66746;51.328;12.332;2023-04-07T05:25:47;100591.38;;;2.61;61.09
77590;BME280;66746;51.328;12.332;2023-04-07T05:28:18;100586.94;;;2.43;61.30
77590;BME280;66746;51.328;12.332;2023-04-07T05:30:45;100591.41;;;2.29;61.69
77590;BME280;66746;51.328;12.332;2023-04-07T05:33:13;100589.66;;;2.19;62.66
77590;BME280;66746;51.328;12.332;2023-04-07T05:35:43;100600.34;;;2.16;62.57
77590;BME280;66746;51.328;12.332;2023-04-07T05:38:10;100590.53;;;2.24;62.16
77590;BME280;66746;51.328;12.332;2023-04-07T05:40:48;100602.13;;;2.40;62.24
77590;BME280;66746;51.328;12.332;2023-04-07T05:43:22;100597.66;;;2.39;61.96
77590;BME280;66746;51.328;12.332;2023-04-07T05:45:49;100598.56;;;2.42;61.69
77590;BME280;66746;51.328;12.332;2023-04-07T05:48:17;100602.09;;;2.43;61.50
77590;BME280;66746;51.328;12.332;2023-04-07T05:50:45;100597.66;;;2.40;62.25
77590;BME280;66746;51.328;12.332;2023-04-07T05:53:15;100596.75;;;2.40;61.60
77590;BME280;66746;51.328;12.332;2023-04-07T05:55:43;100600.31;;;2.54;61.84
77590;BME280;66746;51.328;12.332;2023-04-07T05:58:25;100604.75;;;2.72;61.28
77590;BME280;66746;51.328;12.332;2023-04-07T06:00:54;100604.69;;;2.93;60.84
77590;BME280;66746;51.328;12.332;2023-04-07T06:03:20;100599.22;;;3.23;60.12
77590;BME280;66746;51.328;12.332;2023-04-07T06:05:57;100592.78;;;3.57;58.60
77590;BME280;66746;51.328;12.332;2023-04-07T06:08:24;100596.09;;;3.97;57.43
77590;BME280;66746;51.328;12.332;2023-04-07T06:10:53;100589.56;;;4.32;55.81
77590;BME280;66746;51.328;12.332;2023-04-07T06:13:19;100597.28;;;4.66;54.72
77590;BME280;66746;51.328;12.332;2023-04-07T06:15:47;100585.97;;;5.14;54.55
77590;BME280;66746;51.328;12.332;2023-04-07T06:18:14;100588.00;;;5.65;52.18
77590;BME280;66746;51.328;12.332;2023-04-07T06:20:42;100587.72;;;5.86;50.54
77590;BME280;66746;51.328;12.332;2023-04-07T06:23:09;100595.53;;;6.03;50.07
77590;BME280;66746;51.328;12.332;2023-04-07T06:25:35;100588.03;;;6.21;49.26
77590;BME280;66746;51.328;12.332;2023-04-07T06:28:02;100592.09;;;6.47;49.97
77590;BME280;66746;51.328;12.332;2023-04-07T06:30:30;100579.34;;;6.58;48.65
77590;BME280;66746;51.328;12.332;2023-04-07T06:32:59;100588.00;;;6.75;48.41
77590;BME280;66746;51.328;12.332;2023-04-07T06:35:25;100588.91;;;6.75;48.46
77590;BME280;66746;51.328;12.332;2023-04-07T06:37:52;100576.25;;;6.79;49.11
77590;BME280;66746;51.328;12.332;2023-04-07T06:40:22;100575.91;;;6.50;48.71
77590;BME280;66746;51.328;12.332;2023-04-07T06:42:51;100576.66;;;6.58;48.15
77590;BME280;66746;51.328;12.332;2023-04-07T06:45:26;100581.75;;;6.73;49.06
77590;BME280;66746;51.328;12.332;2023-04-07T06:47:53;100583.41;;;6.80;49.47
77590;BME280;66746;51.328;12.332;2023-04-07T06:50:24;100578.59;;;6.97;49.14
77590;BME280;66746;51.328;12.332;2023-04-07T06:52:51;100581.59;;;7.26;46.26
77590;BME280;66746;51.328;12.332;2023-04-07T06:55:18;100581.06;;;7.50;47.75
77590;BME280;66746;51.328;12.332;2023-04-07T06:57:44;100573.50;;;7.67;45.92
77590;BME280;66746;51.328;12.332;2023-04-07T07:00:11;100576.88;;;7.75;45.43
77590;BME280;66746;51.328;12.332;2023-04-07T07:02:38;100579.72;;;7.71;47.06
77590;BME280;66746;51.328;12.332;2023-04-07T07:05:05;100573.50;;;7.67;46.73
77590;BME280;66746;51.328;12.332;2023-04-07T07:07:33;100578.53;;;7.82;46.24
77590;BME280;66746;51.328;12.332;2023-04-07T07:10:00;100583.38;;;8.07;45.38
77590;BME280;66746;51.328;12.332;2023-04-07T07:12:26;100576.09;;;8.47;44.81
77590;BME280;66746;51.328;12.332;2023-04-07T07:14:53;100579.75;;;8.78;44.10
77590;BME280;66746;51.328;12.332;2023-04-07T07:17:20;100572.38;;;8.83;42.92
77590;BME280;66746;51.328;12.332;2023-04-07T07:19:47;100578.81;;;9.11;43.94
77590;BME280;66746;51.328;12.332;2023-04-07T07:22:13;100580.69;;;8.77;43.90
77590;BME280;66746;51.328;12.332;2023-04-07T07:24:44;100579.69;;;8.47;43.28
77590;BME280;66746;51.328;12.332;2023-04-07T07:27:10;100581.03;;;8.30;43.92
77590;BME280;66746;51.328;12.332;2023-04-07T07:29:37;100581.28;;;8.18;43.97
77590;BME280;66746;51.328;12.332;2023-04-07T07:32:04;100597.41;;;8.21;44.07
77590;BME280;66746;51.328;12.332;2023-04-07T07:34:36;100596.44;;;8.26;43.98
77590;BME280;66746;51.328;12.332;2023-04-07T07:37:03;100590.34;;;8.53;43.50
77590;BME280;66746;51.328;12.332;2023-04-07T07:39:29;100586.53;;;8.60;43.99
77590;BME280;66746;51.328;12.332;2023-04-07T07:41:58;100603.25;;;8.76;42.17
77590;BME280;66746;51.328;12.332;2023-04-07T07:44:25;100598.09;;;8.99;41.25
77590;BME280;66746;51.328;12.332;2023-04-07T07:46:57;100589.47;;;9.48;42.33
77590;BME280;66746;51.328;12.332;2023-04-07T07:49:24;100600.53;;;9.99;40.96
77590;BME280;66746;51.328;12.332;2023-04-07T07:51:51;100589.91;;;10.22;39.04
77590;BME280;66746;51.328;12.332;2023-04-07T07:54:17;100595.97;;;10.56;38.93
77590;BME280;66746;51.328;12.332;2023-04-07T07:56:44;100589.50;;;10.86;38.42
77590;BME280;66746;51.328;12.332;2023-04-07T07:59:18;100590.50;;;10.84;38.00
77590;BME280;66746;51.328;12.332;2023-04-07T08:01:45;100577.59;;;10.90;38.86
77590;BME280;66746;51.328;12.332;2023-04-07T08:04:12;100591.22;;;11.13;38.04
77590;BME280;66746;51.328;12.332;2023-04-07T08:06:39;100598.59;;;11.34;38.36
77590;BME280;66746;51.328;12.332;2023-04-07T08:09:05;100598.13;;;11.46;37.82
77590;BME280;66746;51.328;12.332;2023-04-07T08:11:32;100585.91;;;11.10;37.75
77590;BME280;66746;51.328;12.332;2023-04-07T08:14:02;100601.81;;;10.96;37.56
77590;BME280;66746;51.328;12.332;2023-04-07T08:16:43;100600.97;;;10.68;38.41
77590;BME280;66746;51.328;12.332;2023-04-07T08:19:10;100605.69;;;10.63;40.43
77590;BME280;66746;51.328;12.332;2023-04-07T08:21:48;100589.81;;;10.77;37.59
77590;BME280;66746;51.328;12.332;2023-04-07T08:24:16;100607.13;;;10.73;38.41
77590;BME280;66746;51.328;12.332;2023-04-07T08:26:43;100613.72;;;10.92;38.80
77590;BME280;66746;51.328;12.332;2023-04-07T08:29:14;100616.06;;;10.77;37.71
77590;BME280;66746;51.328;12.332;2023-04-07T08:31:42;100609.66;;;10.53;38.53
77590;BME280;66746;51.328;12.332;2023-04-07T08:34:09;100618.47;;;10.32;37.50
77590;BME280;66746;51.328;12.332;2023-04-07T08:36:41;100618.91;;;10.46;38.25
77590;BME280;66746;51.328;12.332;2023-04-07T08:39:14;100628.88;;;10.72;37.65
77590;BME280;66746;51.328;12.332;2023-04-07T08:41:43;100624.97;;;10.80;39.50
77590;BME280;66746;51.328;12.332;2023-04-07T08:44:13;100630.91;;;10.91;38.04
77590;BME280;66746;51.328;12.332;2023-04-07T08:46:40;100632.50;;;10.98;39.55
77590;BME280;66746;51.328;12.332;2023-04-07T08:49:10;100624.34;;;10.98;36.55
77590;BME280;66746;51.328;12.332;2023-04-07T08:51:44;100620.13;;;11.14;38.05
77590;BME280;66746;51.328;12.332;2023-04-07T08:54:13;100617.19;;;11.20;37.27
77590;BME280;66746;51.328;12.332;2023-04-07T08:56:40;100611.22;;;11.35;38.35
77590;BME280;66746;51.328;12.332;2023-04-07T08:59:10;100613.34;;;11.27;39.99
77590;BME280;66746;51.328;12.332;2023-04-07T09:01:44;100617.84;;;11.51;38.02
77590;BME280;66746;51.328;12.332;2023-04-07T09:04:13;100617.66;;;11.33;34.51
77590;BME280;66746;51.328;12.332;2023-04-07T09:06:44;100618.75;;;11.52;35.71
77590;BME280;66746;51.328;12.332;2023-04-07T09:12:58;100616.97;;;11.76;38.05
77590;BME280;66746;51.328;12.332;2023-04-07T09:15:29;100620.88;;;11.69;35.36
77590;BME280;66746;51.328;12.332;2023-04-07T09:17:56;100624.63;;;11.65;35.43
77590;BME280;66746;51.328;12.332;2023-04-07T09:20:25;100611.00;;;11.66;35.13
77590;BME280;66746;51.328;12.332;2023-04-07T09:22:52;100616.03;;;12.00;34.90
77590;BME280;66746;51.328;12.332;2023-04-07T09:25:20;100621.31;;;12.03;34.37
77590;BME280;66746;51.328;12.332;2023-04-07T09:27:55;100613.63;;;12.14;34.09
77590;BME280;66746;51.328;12.332;2023-04-07T09:30:25;100613.91;;;12.51;38.07
77590;BME280;66746;51.328;12.332;2023-04-07T09:32:52;100613.09;;;12.49;33.75
77590;BME280;66746;51.328;12.332;2023-04-07T09:35:19;100614.91;;;12.70;34.40
77590;BME280;66746;51.328;12.332;2023-04-07T09:38:00;100615.38;;;13.01;34.16
77590;BME280;66746;51.328;12.332;2023-04-07T09:40:27;100608.31;;;13.38;34.32
77590;BME280;66746;51.328;12.332;2023-04-07T09:42:54;100604.66;;;13.59;33.31
77590;BME280;66746;51.328;12.332;2023-04-07T09:45:28;100603.88;;;13.94;31.89
77590;BME280;66746;51.328;12.332;2023-04-07T09:48:04;100600.03;;;14.16;31.51
77590;BME280;66746;51.328;12.332;2023-04-07T09:50:32;100593.19;;;14.08;33.82
77590;BME280;66746;51.328;12.332;2023-04-07T09:53:00;100582.72;;;13.42;32.03
77590;BME280;66746;51.328;12.332;2023-04-07T09:55:28;100586.31;;;13.81;30.86
77590;BME280;66746;51.328;12.332;2023-04-07T09:57:55;100583.94;;;13.55;31.29
77590;BME280;66746;51.328;12.332;2023-04-07T10:00:23;100586.94;;;13.49;34.45
77590;BME280;66746;51.328;12.332;2023-04-07T10:02:49;100580.81;;;13.44;32.69
77590;BME280;66746;51.328;12.332;2023-04-07T10:05:19;100579.22;;;13.58;32.19
77590;BME280;66746;51.328;12.332;2023-04-07T10:07:46;100588.03;;;13.83;32.80
77590;BME280;66746;51.328;12.332;2023-04-07T10:10:15;100579.47;;;13.72;33.90
77590;BME280;66746;51.328;12.332;2023-04-07T10:12:44;100592.69;;;13.43;32.44
77590;BME280;66746;51.328;12.332;2023-04-07T10:15:12;100584.03;;;13.72;33.05
77590;BME280;66746;51.328;12.332;2023-04-07T10:17:40;100584.69;;;13.58;31.32
77590;BME280;66746;51.328;12.332;2023-04-07T10:20:11;100592.09;;;13.93;32.51
77590;BME280;66746;51.328;12.332;2023-04-07T10:22:41;100583.31;;;13.87;34.59
77590;BME280;66746;51.328;12.332;2023-04-07T10:25:13;100586.06;;;14.05;33.47
77590;BME280;66746;51.328;12.332;2023-04-07T10:27:44;100571.28;;;13.91;34.50
77590;BME280;66746;51.328;12.332;2023-04-07T10:30:37;100574.19;;;13.88;35.08
77590;BME280;66746;51.328;12.332;2023-04-07T10:33:16;100568.78;;;13.68;34.88
77590;BME280;66746;51.328;12.332;2023-04-07T10:36:02;100574.34;;;13.65;34.15
77590;BME280;66746;51.328;12.332;2023-04-07T10:38:32;100582.50;;;13.85;31.25
77590;BME280;66746;51.328;12.332;2023-04-07T10:41:31;100578.38;;;13.95;31.63
77590;BME280;66746;51.328;12.332;2023-04-07T10:44:09;100571.47;;;13.88;30.09
77590;BME280;66746;51.328;12.332;2023-04-07T10:47:06;100571.16;;;13.94;32.22
77590;BME280;66746;51.328;12.332;2023-04-07T10:50:14;100577.41;;;13.77;34.08
77590;BME280;66746;51.328;12.332;2023-04-07T10:52:47;100584.69;;;13.77;32.65
77590;BME280;66746;51.328;12.332;2023-04-07T10:55:30;100575.41;;;13.62;35.23
77590;BME280;66746;51.328;12.332;2023-04-07T10:58:16;100566.59;;;13.76;34.61
77590;BME280;66746;51.328;12.332;2023-04-07T11:03:58;100584.00;;;13.92;33.63
77590;BME280;66746;51.328;12.332;2023-04-07T11:06:34;100576.28;;;14.00;32.90
77590;BME280;66746;51.328;12.332;2023-04-07T11:09:18;100573.22;;;13.89;32.48
77590;BME280;66746;51.328;12.332;2023-04-07T11:12:13;100575.84;;;13.72;34.77
77590;BME280;66746;51.328;12.332;2023-04-07T11:14:53;100570.72;;;13.46;33.93
77590;BME280;66746;51.328;12.332;2023-04-07T11:17:29;100574.97;;;13.53;34.47
77590;BME280;66746;51.328;12.332;2023-04-07T11:20:06;100580.78;;;13.64;33.87
77590;BME280;66746;51.328;12.332;2023-04-07T11:22:46;100579.25;;;13.77;31.90
77590;BME280;66746;51.328;12.332;2023-04-07T11:25:43;100576.75;;;13.91;32.21
77590;BME280;66746;51.328;12.332;2023-04-07T11:28:13;100581.69;;;13.83;33.74
77590;BME280;66746;51.328;12.332;2023-04-07T11:30:50;100571.44;;;14.06;34.92
77590;BME280;66746;51.328;12.332;2023-04-07T11:33:27;100575.28;;;14.02;35.39
77590;BME280;66746;51.328;12.332;2023-04-07T11:36:04;100571.00;;;13.97;31.58
77590;BME280;66746;51.328;12.332;2023-04-07T11:38:41;100577.66;;;13.91;34.67
77590;BME280;66746;51.328;12.332;2023-04-07T11:41:14;100570.56;;;14.06;32.27
77590;BME280;66746;51.328;12.332;2023-04-07T11:43:44;100569.97;;;14.18;31.88
77590;BME280;66746;51.328;12.332;2023-04-07T11:46:15;100579.63;;;14.44;31.90
77590;BME280;66746;51.328;12.332;2023-04-07T11:48:47;100565.56;;;14.34;32.16
77590;BME280;66746;51.328;12.332;2023-04-07T11:51:43;100567.28;;;14.54;33.48
77590;BME280;66746;51.328;12.332;2023-04-07T11:54:15;100568.28;;;14.53;33.02
77590;BME280;66746;51.328;12.332;2023-04-07T11:56:46;100575.69;;;14.49;30.79
77590;BME280;66746;51.328;12.332;2023-04-07T11:59:20;100580.72;;;14.58;31.62
77590;BME280;66746;51.328;12.332;2023-04-07T12:02:06;100567.22;;;14.72;32.28
77590;BME280;66746;51.328;12.332;2023-04-07T12:04:54;100587.72;;;14.81;31.57
77590;BME280;66746;51.328;12.332;2023-04-07T12:07:36;100573.84;;;14.68;31.75
77590;BME280;66746;51.328;12.332;2023-04-07T12:10:30;100589.72;;;14.23;31.18
77590;BME280;66746;51.328;12.332;2023-04-07T12:13:17;100589.66;;;14.25;31.05
77590;BME280;66746;51.328;12.332;2023-04-07T12:19:32;100572.75;;;14.35;33.26
77590;BME280;66746;51.328;12.332;2023-04-07T12:22:52;100567.72;;;14.63;32.15
77590;BME280;66746;51.328;12.332;2023-04-07T12:25:31;100571.84;;;14.53;30.92
77590;BME280;66746;51.328;12.332;2023-04-07T12:29:41;100573.06;;;14.48;32.64
77590;BME280;66746;51.328;12.332;2023-04-07T12:32:27;100566.06;;;14.05;31.12
77590;BME280;66746;51.328;12.332;2023-04-07T12:35:05;100557.38;;;14.34;31.69
77590;BME280;66746;51.328;12.332;2023-04-07T12:37:45;100569.81;;;14.02;32.41
77590;BME280;66746;51.328;12.332;2023-04-07T12:40:15;100567.09;;;13.84;33.52
77590;BME280;66746;51.328;12.332;2023-04-07T12:42:46;100568.13;;;13.81;32.58
77590;BME280;66746;51.328;12.332;2023-04-07T12:45:13;100581.03;;;13.96;31.08
77590;BME280;66746;51.328;12.332;2023-04-07T12:47:43;100576.75;;;13.91;33.11
77590;BME280;66746;51.328;12.332;2023-04-07T12:50:16;100562.91;;;13.95;32.31
77590;BME280;66746;51.328;12.332;2023-04-07T12:52:59;100561.78;;;13.81;30.80
77590;BME280;66746;51.328;12.332;2023-04-07T12:55:26;100564.66;;;14.15;30.58
77590;BME280;66746;51.328;12.332;2023-04-07T12:57:53;100575.56;;;14.15;32.55
77590;BME280;66746;51.328;12.332;2023-04-07T13:00:24;100568.88;;;13.85;31.57
77590;BME280;66746;51.328;12.332;2023-04-07T13:03:07;100561.56;;;13.85;33.03
77590;BME280;66746;51.328;12.332;2023-04-07T13:05:52;100569.75;;;13.85;33.00
77590;BME280;66746;51.328;12.332;2023-04-07T13:08:25;100562.88;;;13.77;32.84
77590;BME280;66746;51.328;12.332;2023-04-07T13:10:54;100557.44;;;13.77;32.52
77590;BME280;66746;51.328;12.332;2023-04-07T13:13:23;100557.59;;;14.11;32.54
77590;BME280;66746;51.328;12.332;2023-04-07T13:15:52;100562.00;;;13.95;33.98
77590;BME280;66746;51.328;12.332;2023-04-07T13:18:24;100560.25;;;13.75;31.95
77590;BME280;66746;51.328;12.332;2023-04-07T13:21:03;100567.69;;;13.72;33.69
77590;BME280;66746;51.328;12.332;2023-04-07T13:23:55;100558.50;;;14.11;32.19